Carl — WDG6376 — position and weather

sailwx.info

Track history (hours):
 
Tides and Currents Weather Stations Pressure Air Temp Water Temp Dewpoint Dewpoint Depression Visibility Wind Speed Wind Dir Waves Ship Positions

Carl

Owner: POINT COMFORT TOWING CO., INC., POINT COMFORT, TX. More information available from US FCC via Universal Licensing System and Coast Guard Vessel Documentation Center.

Last reported at 2018-Jun-20 05:30 UTC. Time now 2018-Jun-20 05:34 UTC.
Position N 30°11' W 093°19'.

Length 32 m; draft 4 m.

Type: Towing. MMSI: 367556330.

Date/timePositionNaut miles runAvg speedWind from/ knotsBaromVisibWave heightAir tempDewpointWater temp
2018-Jun-20 05:30N 30°11' W 093°19'0 0.0
2018-Jun-20 05:00N 30°11' W 093°19'0 0.0
2018-Jun-20 04:30N 30°11' W 093°19'0 0.0
2018-Jun-20 04:00N 30°11' W 093°19'0 0.0
2018-Jun-20 03:27N 30°11' W 093°19'0 0.0
2018-Jun-20 02:59N 30°11' W 093°19'0 0.0
2018-Jun-20 02:30N 30°11' W 093°19'0 0.0
2018-Jun-20 02:00N 30°11' W 093°19'0 0.1
2018-Jun-20 01:31N 30°11' W 093°19'0 0.6
2018-Jun-20 01:00N 30°11' W 093°19'0 0.7
2018-Jun-20 00:30N 30°11' W 093°19'1 1.0
2018-Jun-20 00:00N 30°11' W 093°19'0 0.8
2018-Jun-19 23:30N 30°11' W 093°19'1 2.1
2018-Jun-19 23:00N 30°10' W 093°19'3 6.9
2018-Jun-19 22:30N 30°06' W 093°20'2 4.5
2018-Jun-19 22:00N 30°06' W 093°17'0 0.0
2018-Jun-19 21:30N 30°06' W 093°17'0 0.0
2018-Jun-19 21:00N 30°06' W 093°17'0 0.0
2018-Jun-19 20:30N 30°06' W 093°17'0 0.0
2018-Jun-19 20:00N 30°06' W 093°17'0 0.0
2018-Jun-19 19:30N 30°06' W 093°17'0 0.0
2018-Jun-19 19:00N 30°06' W 093°17'0 0.0
2018-Jun-19 18:30N 30°06' W 093°17'0 0.0
2018-Jun-19 18:00N 30°06' W 093°17'1 2.9
2018-Jun-19 17:30N 30°06' W 093°19'3 6.3
2018-Jun-19 17:00N 30°09' W 093°20'4 8.3
2018-Jun-19 16:30N 30°12' W 093°17'0 0.9
2018-Jun-19 16:00N 30°12' W 093°16'3 5.7
2018-Jun-19 15:30N 30°11' W 093°19'0 0.0
2018-Jun-19 15:00N 30°11' W 093°19'0 0.0
2018-Jun-19 14:30N 30°11' W 093°19'0 0.0
2018-Jun-19 13:59N 30°11' W 093°19'1 2.3
2018-Jun-19 13:31N 30°10' W 093°19'1 2.8
2018-Jun-19 13:00N 30°11' W 093°19'1 1.1
2018-Jun-19 12:30N 30°11' W 093°19'0 0.0
2018-Jun-19 12:00N 30°11' W 093°19'0 0.3
2018-Jun-19 11:30N 30°11' W 093°19'4 8.4
2018-Jun-19 11:00N 30°07' W 093°20'3 5.1
2018-Jun-19 10:30N 30°06' W 093°17'0 0.0
2018-Jun-19 10:00N 30°06' W 093°17'0 0.0
2018-Jun-19 09:30N 30°06' W 093°17'0 0.0
2018-Jun-19 09:00N 30°06' W 093°17'0 0.0
2018-Jun-19 08:30N 30°06' W 093°17'0 0.0
2018-Jun-19 08:00N 30°06' W 093°17'0 0.0
2018-Jun-19 07:30N 30°06' W 093°17'0 0.0
2018-Jun-19 07:00N 30°06' W 093°17'0 0.0
2018-Jun-19 06:30N 30°06' W 093°17'0 0.0
2018-Jun-19 06:00N 30°06' W 093°17'0 0.0
2018-Jun-19 05:30N 30°06' W 093°17'0 0.0
2018-Jun-19 05:00N 30°06' W 093°17'0 0.0
2018-Jun-19 04:30N 30°06' W 093°17'0 0.0
2018-Jun-19 04:00N 30°06' W 093°17'0 0.0
2018-Jun-19 03:30N 30°06' W 093°17'0 0.0
2018-Jun-19 03:00N 30°06' W 093°17'0 0.0
2018-Jun-19 02:30N 30°06' W 093°17'0 0.0
2018-Jun-19 02:00N 30°06' W 093°17'0 0.0
2018-Jun-19 01:30N 30°06' W 093°17'0 0.0
2018-Jun-19 01:00N 30°06' W 093°17'0 0.0
2018-Jun-19 00:30N 30°06' W 093°17'0 0.0
2018-Jun-19 00:00N 30°06' W 093°17'0 0.0
2018-Jun-18 23:30N 30°06' W 093°17'0 0.0
2018-Jun-18 23:00N 30°06' W 093°17'0 0.0
2018-Jun-18 22:30N 30°06' W 093°17'0 0.0
2018-Jun-18 22:00N 30°06' W 093°17'0 0.0
2018-Jun-18 21:30N 30°06' W 093°17'0 0.0
2018-Jun-18 21:00N 30°06' W 093°17'0 0.0
2018-Jun-18 20:30N 30°06' W 093°17'0 0.0
2018-Jun-18 20:00N 30°06' W 093°17'0 0.0
2018-Jun-18 19:30N 30°06' W 093°17'0 0.0
2018-Jun-18 19:00N 30°06' W 093°17'0 0.0
2018-Jun-18 18:30N 30°06' W 093°17'0 0.0
2018-Jun-18 18:00N 30°06' W 093°17'0 0.0
2018-Jun-18 17:30N 30°06' W 093°17'0 0.0
2018-Jun-18 17:00N 30°06' W 093°17'0 0.0
2018-Jun-18 16:30N 30°06' W 093°17'0 0.0
2018-Jun-18 16:00N 30°06' W 093°17'0 0.0
2018-Jun-18 15:30N 30°06' W 093°17'0 0.0
2018-Jun-18 15:00N 30°06' W 093°17'0 0.0
2018-Jun-18 14:30N 30°06' W 093°17'0 0.0
2018-Jun-18 14:00N 30°06' W 093°17'0 0.0
2018-Jun-18 13:30N 30°06' W 093°17'0 0.0
2018-Jun-18 13:00N 30°06' W 093°17'0 0.0
2018-Jun-18 12:30N 30°06' W 093°17'0 0.0
2018-Jun-18 12:00N 30°06' W 093°17'0 0.0
2018-Jun-18 11:30N 30°06' W 093°17'0 0.0
2018-Jun-18 11:00N 30°06' W 093°17'0 0.0
2018-Jun-18 10:30N 30°06' W 093°17'0 0.0
2018-Jun-18 10:00N 30°06' W 093°17'0 0.0
2018-Jun-18 09:30N 30°06' W 093°17'0 0.0
2018-Jun-18 09:00N 30°06' W 093°17'0 0.0
2018-Jun-18 08:30N 30°06' W 093°17'0 0.0
2018-Jun-18 08:00N 30°06' W 093°17'0 0.0
2018-Jun-18 07:30N 30°06' W 093°17'0 0.0
2018-Jun-18 07:00N 30°06' W 093°17'0 0.0
2018-Jun-18 06:30N 30°06' W 093°17'0 0.0
2018-Jun-18 06:00N 30°06' W 093°17'0 0.0
2018-Jun-18 05:30N 30°06' W 093°17'0 0.0
2018-Jun-18 05:00N 30°06' W 093°17'0 0.0
2018-Jun-18 04:30N 30°06' W 093°17'0 0.0
2018-Jun-18 04:00N 30°06' W 093°17'0 0.0
2018-Jun-18 03:30N 30°06' W 093°17'0 0.0
2018-Jun-18 03:00N 30°06' W 093°17'0 0.0
2018-Jun-18 02:30N 30°06' W 093°17'0 0.0
2018-Jun-18 02:00N 30°06' W 093°17'0 0.0
2018-Jun-18 01:30N 30°06' W 093°17'0 0.0
2018-Jun-18 01:00N 30°06' W 093°17'0 0.0
2018-Jun-18 00:30N 30°06' W 093°17'0 0.0
2018-Jun-18 00:00N 30°06' W 093°17'0 0.0
2018-Jun-17 23:30N 30°06' W 093°17'0 0.0
2018-Jun-17 23:00N 30°06' W 093°17'0 0.0
2018-Jun-17 22:30N 30°06' W 093°17'0 0.0
2018-Jun-17 22:00N 30°06' W 093°17'0 0.0
2018-Jun-17 21:30N 30°06' W 093°17'0 0.0
2018-Jun-17 21:00N 30°06' W 093°17'0 0.0
2018-Jun-17 20:30N 30°06' W 093°17'0 0.0
2018-Jun-17 20:00N 30°06' W 093°17'0 0.0
2018-Jun-17 19:30N 30°06' W 093°17'0 0.0
2018-Jun-17 19:00N 30°06' W 093°17'0 0.0
2018-Jun-17 18:30N 30°06' W 093°17'0 0.0
2018-Jun-17 18:00N 30°06' W 093°17'0 0.0
2018-Jun-17 17:30N 30°06' W 093°17'0 0.0
2018-Jun-17 17:00N 30°06' W 093°17'0 0.0
2018-Jun-17 16:30N 30°06' W 093°17'0 0.0
2018-Jun-17 16:00N 30°06' W 093°17'0 0.0
2018-Jun-17 15:30N 30°06' W 093°17'0 0.0
2018-Jun-17 15:00N 30°06' W 093°17'0 0.0
2018-Jun-17 14:30N 30°06' W 093°17'0 0.0
2018-Jun-17 14:00N 30°06' W 093°17'0 0.0
2018-Jun-17 13:30N 30°06' W 093°17'0 0.0
2018-Jun-17 13:00N 30°06' W 093°17'0 0.0
2018-Jun-17 12:30N 30°06' W 093°17'0 0.0
2018-Jun-17 12:00N 30°06' W 093°17'0 0.0
2018-Jun-17 11:30N 30°06' W 093°17'0 0.0
2018-Jun-17 11:00N 30°06' W 093°17'0 0.0
2018-Jun-17 10:30N 30°06' W 093°17'0 0.0
2018-Jun-17 10:00N 30°06' W 093°17'0 0.0
2018-Jun-17 09:30N 30°06' W 093°17'0 0.0
2018-Jun-17 09:00N 30°06' W 093°17'0 0.0
2018-Jun-17 08:30N 30°06' W 093°17'0 0.0
2018-Jun-17 08:00N 30°06' W 093°17'0 0.0
2018-Jun-17 07:30N 30°06' W 093°17'0 0.0
2018-Jun-17 07:00N 30°06' W 093°17'0 0.0
2018-Jun-17 06:30N 30°06' W 093°17'0 0.0
2018-Jun-17 06:00N 30°06' W 093°17'0 0.0
2018-Jun-17 05:30N 30°06' W 093°17'0 0.0
2018-Jun-17 05:00N 30°06' W 093°17'0 0.0
2018-Jun-17 04:30N 30°06' W 093°17'0 0.0
2018-Jun-17 04:00N 30°06' W 093°17'0 0.0
2018-Jun-17 03:30N 30°06' W 093°17'0 0.0
2018-Jun-17 03:00N 30°06' W 093°17'0 0.0
2018-Jun-17 02:30N 30°06' W 093°17'0 0.0
2018-Jun-17 02:00N 30°06' W 093°17'0 0.0
2018-Jun-17 01:30N 30°06' W 093°17'0 0.0
2018-Jun-17 01:00N 30°06' W 093°17'0 0.0
2018-Jun-17 00:30N 30°06' W 093°17'0 0.0
2018-Jun-17 00:00N 30°06' W 093°17'0 0.0
2018-Jun-16 23:30N 30°06' W 093°17'0 0.0
2018-Jun-16 23:00N 30°06' W 093°17'0 0.0
2018-Jun-16 22:30N 30°06' W 093°17'0 0.0
2018-Jun-16 22:00N 30°06' W 093°17'0 0.0
2018-Jun-16 21:30N 30°06' W 093°17'0 0.0
2018-Jun-16 21:00N 30°06' W 093°17'0 0.0
2018-Jun-16 20:30N 30°06' W 093°17'0 0.0
2018-Jun-16 20:00N 30°06' W 093°17'0 0.0
2018-Jun-16 19:30N 30°06' W 093°17'3 5.3
2018-Jun-16 19:00N 30°07' W 093°20'2 4.5
2018-Jun-16 18:31N 30°10' W 093°19'2 3.3
2018-Jun-16 18:00N 30°11' W 093°19'0 0.2
2018-Jun-16 17:31N 30°11' W 093°19'0 0.8
2018-Jun-16 17:00N 30°11' W 093°19'0 0.0
2018-Jun-16 16:30N 30°11' W 093°19'0 0.0
2018-Jun-16 15:59N 30°11' W 093°19'0 0.0
2018-Jun-16 15:28N 30°11' W 093°19'0 0.3
2018-Jun-16 15:00N 30°11' W 093°19'1 2.8
2018-Jun-16 14:30N 30°09' W 093°20'0 0.0
2018-Jun-16 14:00N 30°09' W 093°20'0 1.0
2018-Jun-16 13:30N 30°09' W 093°20'3 5.5
2018-Jun-16 13:00N 30°06' W 093°20'3 5.3
2018-Jun-16 12:30N 30°04' W 093°20'4 7.0
2018-Jun-16 12:00N 30°07' W 093°17'0 0.6
2018-Jun-16 11:30N 30°06' W 093°17'0 0.0
2018-Jun-16 11:00N 30°06' W 093°17'0 0.0
2018-Jun-16 10:30N 30°06' W 093°17'0 0.0
2018-Jun-16 10:00N 30°06' W 093°17'0 0.0
2018-Jun-16 09:30N 30°06' W 093°17'0 0.0
2018-Jun-16 09:00N 30°06' W 093°17'0 0.0
2018-Jun-16 08:30N 30°06' W 093°17'0 0.0
2018-Jun-16 08:00N 30°06' W 093°17'0 0.0
2018-Jun-16 07:30N 30°06' W 093°17'0 0.0
2018-Jun-16 07:00N 30°06' W 093°17'0 0.0
2018-Jun-16 06:30N 30°06' W 093°17'0 0.0
2018-Jun-16 06:00N 30°06' W 093°17'0 0.0
2018-Jun-16 05:30N 30°06' W 093°17'0 0.0
2018-Jun-16 05:00N 30°06' W 093°17'0 0.0
2018-Jun-16 04:30N 30°06' W 093°17'0 0.0
2018-Jun-16 04:00N 30°06' W 093°17'0 0.0
2018-Jun-16 03:29N 30°06' W 093°17'0 0.0
2018-Jun-16 03:00N 30°06' W 093°17'0 0.0
2018-Jun-16 02:30N 30°06' W 093°17'0 0.0
2018-Jun-16 01:58N 30°06' W 093°17'0 0.0
2018-Jun-16 01:30N 30°06' W 093°17'0 0.0
2018-Jun-16 01:00N 30°06' W 093°17'0 0.0
2018-Jun-16 00:30N 30°06' W 093°17'0 0.0
2018-Jun-16 00:00N 30°06' W 093°17'0 0.0
2018-Jun-15 23:30N 30°06' W 093°17'0 0.0
2018-Jun-15 23:00N 30°06' W 093°17'0 0.0
2018-Jun-15 22:30N 30°06' W 093°17'0 0.0
2018-Jun-15 22:00N 30°06' W 093°17'0 0.0
2018-Jun-15 21:30N 30°06' W 093°17'0 0.0
2018-Jun-15 21:00N 30°06' W 093°17'0 0.0
2018-Jun-15 20:30N 30°06' W 093°17'0 0.0
2018-Jun-15 20:00N 30°06' W 093°17'0 0.0
2018-Jun-15 19:30N 30°06' W 093°17'0 0.0
2018-Jun-15 19:00N 30°06' W 093°17'0 0.0
2018-Jun-15 18:30N 30°06' W 093°17'0 0.0
2018-Jun-15 18:00N 30°06' W 093°17'0 0.0
2018-Jun-15 17:30N 30°06' W 093°17'0 0.0
2018-Jun-15 17:00N 30°06' W 093°17'0 0.0
2018-Jun-15 16:30N 30°06' W 093°17'0 0.0
2018-Jun-15 16:00N 30°06' W 093°17'0 0.0
2018-Jun-15 15:30N 30°06' W 093°17'0 0.0
2018-Jun-15 15:00N 30°06' W 093°17'0 0.0
2018-Jun-15 14:30N 30°06' W 093°17'0 0.0
2018-Jun-15 14:00N 30°06' W 093°17'0 0.0
2018-Jun-15 13:30N 30°06' W 093°17'0 0.0
2018-Jun-15 13:00N 30°06' W 093°17'0 0.0
2018-Jun-15 12:30N 30°06' W 093°17'0 0.0
2018-Jun-15 12:00N 30°06' W 093°17'0 0.0
2018-Jun-15 11:30N 30°06' W 093°17'0 0.0
2018-Jun-15 11:00N 30°06' W 093°17'0 0.0
2018-Jun-15 10:30N 30°06' W 093°17'0 0.0
2018-Jun-15 10:00N 30°06' W 093°17'0 0.0
2018-Jun-15 09:30N 30°06' W 093°17'0 0.0
2018-Jun-15 09:00N 30°06' W 093°17'0 0.0
2018-Jun-15 08:30N 30°06' W 093°17'0 0.0
2018-Jun-15 08:00N 30°06' W 093°17'0 0.0
2018-Jun-15 07:30N 30°06' W 093°17'0 0.0
2018-Jun-15 07:00N 30°06' W 093°17'0 0.0
2018-Jun-15 06:30N 30°06' W 093°17'0 0.0
2018-Jun-15 06:00N 30°06' W 093°17'0 0.0
2018-Jun-15 05:30N 30°06' W 093°17'0 0.0
2018-Jun-15 05:00N 30°06' W 093°17'0 0.0
2018-Jun-15 04:30N 30°06' W 093°17'0 0.0
2018-Jun-15 04:00N 30°06' W 093°17'0 0.0
2018-Jun-15 03:30N 30°06' W 093°17'0 0.0
2018-Jun-15 03:00N 30°06' W 093°17'0 0.0
2018-Jun-15 02:29N 30°06' W 093°17'0 0.0
2018-Jun-15 02:00N 30°06' W 093°17'0 0.0
2018-Jun-15 01:30N 30°06' W 093°17'0 0.0
2018-Jun-15 01:00N 30°06' W 093°17'0 0.0
2018-Jun-15 00:30N 30°06' W 093°17'0 0.0
2018-Jun-15 00:00N 30°06' W 093°17'0 0.0
2018-Jun-14 23:30N 30°06' W 093°17'0 0.0
2018-Jun-14 23:00N 30°06' W 093°17'0 0.0
2018-Jun-14 22:30N 30°06' W 093°17'0 0.0
2018-Jun-14 22:00N 30°06' W 093°17'0 0.0
2018-Jun-14 21:30N 30°06' W 093°17'0 0.0
2018-Jun-14 21:00N 30°06' W 093°17'0 0.0
2018-Jun-14 20:30N 30°06' W 093°17'0 0.0
2018-Jun-14 20:00N 30°06' W 093°17'0 0.0
2018-Jun-14 19:30N 30°06' W 093°17'1 1.7
2018-Jun-14 19:00N 30°06' W 093°18'3 5.9
2018-Jun-14 18:30N 30°09' W 093°20'1 1.3
2018-Jun-14 18:00N 30°09' W 093°20'0 0.0
2018-Jun-14 17:30N 30°09' W 093°20'1 1.2
2018-Jun-14 17:00N 30°09' W 093°20'2 4.9
2018-Jun-14 16:30N 30°07' W 093°20'3 5.6
2018-Jun-14 16:00N 30°04' W 093°20'1 1.1
2018-Jun-14 15:30N 30°04' W 093°20'5 9.2
2018-Jun-14 15:00N 30°09' W 093°20'2 4.1
2018-Jun-14 14:30N 30°11' W 093°19'0 0.0
2018-Jun-14 14:00N 30°11' W 093°19'0 0.0
2018-Jun-14 13:30N 30°11' W 093°19'0 0.0
2018-Jun-14 13:00N 30°11' W 093°19'0 0.0
2018-Jun-14 12:30N 30°11' W 093°19'0 0.4
2018-Jun-14 12:00N 30°11' W 093°19'0 0.0
2018-Jun-14 11:30N 30°11' W 093°19'1 1.4
2018-Jun-14 11:00N 30°11' W 093°18'2 3.9
2018-Jun-14 10:31N 30°09' W 093°20'1 2.6
2018-Jun-14 10:00N 30°08' W 093°20'2 4.8
2018-Jun-14 09:30N 30°07' W 093°18'1 1.0
2018-Jun-14 09:00N 30°06' W 093°17'0 0.0
2018-Jun-14 08:30N 30°06' W 093°17'0 0.0
2018-Jun-14 08:00N 30°06' W 093°17'0 0.0
2018-Jun-14 07:30N 30°06' W 093°17'0 0.0
2018-Jun-14 07:00N 30°06' W 093°17'0 0.0
2018-Jun-14 06:30N 30°06' W 093°17'0 0.0
2018-Jun-14 06:00N 30°06' W 093°17'0 0.0
2018-Jun-14 05:30N 30°06' W 093°17'0 0.0
2018-Jun-14 05:00N 30°06' W 093°17'0 0.0
2018-Jun-14 04:26N 30°06' W 093°17'0 0.0
2018-Jun-14 04:00N 30°06' W 093°17'0 0.8
2018-Jun-14 03:30N 30°07' W 093°18'2 4.5
2018-Jun-14 03:00N 30°07' W 093°20'2 4.7
2018-Jun-14 02:30N 30°10' W 093°19'2 4.0
2018-Jun-14 02:00N 30°11' W 093°18'0 0.6
2018-Jun-14 01:30N 30°12' W 093°18'1 2.4
2018-Jun-14 00:58N 30°11' W 093°19'0 1.0
2018-Jun-14 00:30N 30°10' W 093°19'2 3.6
2018-Jun-14 00:00N 30°09' W 093°20'0 0.7
2018-Jun-13 23:30N 30°08' W 093°20'1 2.8
2018-Jun-13 23:00N 30°07' W 093°20'3 5.3
2018-Jun-13 22:30N 30°06' W 093°17'0 0.0
2018-Jun-13 22:00N 30°06' W 093°17'0 0.0
2018-Jun-13 21:30N 30°06' W 093°17'0 0.0
2018-Jun-13 21:00N 30°06' W 093°17'0 0.0
2018-Jun-13 20:30N 30°06' W 093°17'0 0.0
2018-Jun-13 20:00N 30°06' W 093°17'0 0.0
2018-Jun-13 19:30N 30°06' W 093°17'0 0.0
2018-Jun-13 19:00N 30°06' W 093°17'0 0.0
2018-Jun-13 18:30N 30°06' W 093°17'0 0.0
2018-Jun-13 18:00N 30°06' W 093°17'0 0.0
2018-Jun-13 17:30N 30°06' W 093°17'0 0.0
2018-Jun-13 17:00N 30°06' W 093°17'0 0.0
2018-Jun-13 16:30N 30°06' W 093°17'0 0.0
2018-Jun-13 16:00N 30°06' W 093°17'0 0.1
2018-Jun-13 15:30N 30°06' W 093°17'0 0.0
2018-Jun-13 15:00N 30°06' W 093°17'0 0.0
2018-Jun-13 14:30N 30°06' W 093°17'0 0.0
2018-Jun-13 14:00N 30°06' W 093°17'0 0.0
2018-Jun-13 13:30N 30°06' W 093°17'0 0.2
2018-Jun-13 13:00N 30°06' W 093°17'0 0.1
2018-Jun-13 12:30N 30°06' W 093°17'0 0.0
2018-Jun-13 12:00N 30°06' W 093°17'0 0.0
2018-Jun-13 11:30N 30°06' W 093°17'0 0.0
2018-Jun-13 11:00N 30°06' W 093°17'0 0.0
2018-Jun-13 10:30N 30°06' W 093°17'0 0.0
2018-Jun-13 10:00N 30°06' W 093°17'0 0.0
2018-Jun-13 09:30N 30°06' W 093°17'0 0.0
2018-Jun-13 09:00N 30°06' W 093°17'0 0.0
2018-Jun-13 08:30N 30°06' W 093°17'0 0.0
2018-Jun-13 08:00N 30°06' W 093°17'0 0.0
2018-Jun-13 07:30N 30°06' W 093°17'0 0.0
2018-Jun-13 07:00N 30°06' W 093°17'0 0.0
2018-Jun-13 06:30N 30°06' W 093°17'0 0.0
2018-Jun-13 06:00N 30°06' W 093°17'0 0.0
2018-Jun-13 05:30N 30°06' W 093°17'0 0.0
2018-Jun-13 05:00N 30°06' W 093°17'0 0.0
2018-Jun-13 04:30N 30°06' W 093°17'0 0.0
2018-Jun-13 04:00N 30°06' W 093°17'0 0.0
2018-Jun-13 03:30N 30°06' W 093°17'0 0.0
2018-Jun-13 03:00N 30°06' W 093°17'0 0.0
2018-Jun-13 02:30N 30°06' W 093°17'0 0.1
2018-Jun-13 02:00N 30°06' W 093°17'0 0.0
2018-Jun-13 01:30N 30°06' W 093°17'0 0.0
2018-Jun-13 01:00N 30°06' W 093°17'0 0.0
2018-Jun-13 00:30N 30°06' W 093°17'0 0.0
2018-Jun-13 00:00N 30°06' W 093°17'0 0.0
2018-Jun-12 23:30N 30°06' W 093°17'0 0.0
2018-Jun-12 23:00N 30°06' W 093°17'0 0.0
2018-Jun-12 22:30N 30°06' W 093°17'0 0.0
2018-Jun-12 22:00N 30°06' W 093°17'0 0.0
2018-Jun-12 21:30N 30°06' W 093°17'0 0.0
2018-Jun-12 21:00N 30°06' W 093°17'0 0.0
2018-Jun-12 20:30N 30°06' W 093°17'0 0.0
2018-Jun-12 20:00N 30°06' W 093°17'0 0.0
2018-Jun-12 19:30N 30°06' W 093°17'0 0.0
2018-Jun-12 19:00N 30°06' W 093°17'0 0.0
2018-Jun-12 18:30N 30°06' W 093°17'0 0.0
2018-Jun-12 18:00N 30°06' W 093°17'0 0.0
2018-Jun-12 17:30N 30°06' W 093°17'0 0.0
2018-Jun-12 17:00N 30°06' W 093°17'0 0.0
2018-Jun-12 16:30N 30°06' W 093°17'0 0.0
2018-Jun-12 16:00N 30°06' W 093°17'0 0.0
2018-Jun-12 15:30N 30°06' W 093°17'2 4.5
2018-Jun-12 15:00N 30°06' W 093°20'3 1.7
2018-Jun-12 12:54N 30°10' W 093°19'0 1.2
2018-Jun-12 12:30N 30°10' W 093°19'1 1.4
2018-Jun-12 12:00N 30°11' W 093°19'0 0.0
2018-Jun-12 11:29N 30°11' W 093°19'0 0.0
2018-Jun-12 10:56N 30°11' W 093°19'0 0.0
2018-Jun-12 10:30N 30°11' W 093°19'0 0.0
2018-Jun-12 09:58N 30°11' W 093°19'0 0.0
2018-Jun-12 09:30N 30°11' W 093°19'2 3.6
2018-Jun-12 09:01N 30°09' W 093°20'0 0.1
2018-Jun-12 08:30N 30°09' W 093°20'0 0.5
2018-Jun-12 08:00N 30°09' W 093°20'0 1.0
2018-Jun-12 07:30N 30°09' W 093°20'3 5.8
2018-Jun-12 07:00N 30°06' W 093°18'1 2.3
2018-Jun-12 06:30N 30°06' W 093°17'0 0.0
2018-Jun-12 06:00N 30°06' W 093°17'0 0.0
2018-Jun-12 05:30N 30°06' W 093°17'0 0.0
2018-Jun-12 05:00N 30°06' W 093°17'0 0.0
2018-Jun-12 04:30N 30°06' W 093°17'0 0.0
2018-Jun-12 04:00N 30°06' W 093°17'0 0.0
2018-Jun-12 03:30N 30°06' W 093°17'0 0.0
2018-Jun-12 03:00N 30°06' W 093°17'0 0.0
2018-Jun-12 02:30N 30°06' W 093°17'0 0.0
2018-Jun-12 02:00N 30°06' W 093°17'0 0.0
2018-Jun-12 01:30N 30°06' W 093°17'0 0.0
2018-Jun-12 01:00N 30°06' W 093°17'0 0.0
2018-Jun-12 00:30N 30°06' W 093°17'0 0.0
2018-Jun-12 00:01N 30°06' W 093°17'0 0.0
2018-Jun-11 23:30N 30°06' W 093°17'0 0.0
2018-Jun-11 23:00N 30°06' W 093°17'0 0.0
2018-Jun-11 22:30N 30°06' W 093°17'0 0.0
2018-Jun-11 22:00N 30°06' W 093°17'0 0.0
2018-Jun-11 21:30N 30°06' W 093°17'0 0.0
2018-Jun-11 21:00N 30°06' W 093°17'0 0.0
2018-Jun-11 20:30N 30°06' W 093°17'0 0.0
2018-Jun-11 20:00N 30°06' W 093°17'0 0.0
2018-Jun-11 19:30N 30°06' W 093°17'0 0.0
2018-Jun-11 19:00N 30°06' W 093°17'0 0.0
2018-Jun-11 18:30N 30°06' W 093°17'0 0.0
2018-Jun-11 18:00N 30°06' W 093°17'0 0.0
2018-Jun-11 17:30N 30°06' W 093°17'0 0.0
2018-Jun-11 17:00N 30°06' W 093°17'0 0.0
2018-Jun-11 16:30N 30°06' W 093°17'0 0.0
2018-Jun-11 16:00N 30°06' W 093°17'0 0.0
2018-Jun-11 15:30N 30°06' W 093°17'0 0.0
2018-Jun-11 15:00N 30°06' W 093°17'0 0.0
2018-Jun-11 14:30N 30°06' W 093°17'3 5.4
2018-Jun-11 14:00N 30°07' W 093°20'3 5.5
2018-Jun-11 13:30N 30°10' W 093°19'1 2.2
2018-Jun-11 13:00N 30°11' W 093°19'0 0.0
2018-Jun-11 12:30N 30°11' W 093°19'0 0.7
2018-Jun-11 12:00N 30°11' W 093°19'0 0.0
2018-Jun-11 11:30N 30°11' W 093°19'0 0.0
2018-Jun-11 11:00N 30°11' W 093°19'0 0.0
2018-Jun-11 10:30N 30°11' W 093°19'0 0.0
2018-Jun-11 10:00N 30°11' W 093°19'2 3.2
2018-Jun-11 09:30N 30°09' W 093°20'0 0.0
2018-Jun-11 09:00N 30°09' W 093°20'1 1.1
2018-Jun-11 08:30N 30°09' W 093°20'3 5.4
2018-Jun-11 08:00N 30°06' W 093°20'3 5.8
2018-Jun-11 07:30N 30°03' W 093°20'3 5.1
2018-Jun-11 07:00N 30°06' W 093°19'2 3.9
2018-Jun-11 06:30N 30°06' W 093°17'0 0.0
2018-Jun-11 06:00N 30°06' W 093°17'0 0.0
2018-Jun-11 05:30N 30°06' W 093°17'0 0.0
2018-Jun-11 05:00N 30°06' W 093°17'0 0.0
2018-Jun-11 04:30N 30°06' W 093°17'0 0.0
2018-Jun-11 04:00N 30°06' W 093°17'0 0.0
2018-Jun-11 03:30N 30°06' W 093°17'0 0.0
2018-Jun-11 03:00N 30°06' W 093°17'0 0.0
2018-Jun-11 02:30N 30°06' W 093°17'0 0.0
2018-Jun-11 01:59N 30°06' W 093°17'0 0.0
2018-Jun-11 01:30N 30°06' W 093°17'0 0.0
2018-Jun-11 01:00N 30°06' W 093°17'0 0.0
2018-Jun-11 00:30N 30°06' W 093°17'0 0.0
2018-Jun-11 00:00N 30°06' W 093°17'0 0.0
2018-Jun-10 23:30N 30°06' W 093°17'0 0.0
2018-Jun-10 23:00N 30°06' W 093°17'0 0.0
2018-Jun-10 22:30N 30°06' W 093°17'0 0.0
2018-Jun-10 22:00N 30°06' W 093°17'0 0.0
2018-Jun-10 21:30N 30°06' W 093°17'0 0.0
2018-Jun-10 21:00N 30°06' W 093°17'0 0.0
2018-Jun-10 20:30N 30°06' W 093°17'0 0.0
2018-Jun-10 20:00N 30°06' W 093°17'0 0.0
2018-Jun-10 19:30N 30°06' W 093°17'0 0.0
2018-Jun-10 19:00N 30°06' W 093°17'0 0.0
2018-Jun-10 18:30N 30°06' W 093°17'0 0.0
2018-Jun-10 18:00N 30°06' W 093°17'0 0.0
2018-Jun-10 17:30N 30°06' W 093°17'0 0.0
2018-Jun-10 17:00N 30°06' W 093°17'0 0.0
2018-Jun-10 16:30N 30°06' W 093°17'0 0.0
2018-Jun-10 16:00N 30°06' W 093°17'0 0.0
2018-Jun-10 15:30N 30°06' W 093°17'0 0.0
2018-Jun-10 15:00N 30°06' W 093°17'0 0.0
2018-Jun-10 14:00N 30°06' W 093°17'0 0.0
2018-Jun-10 13:30N 30°06' W 093°17'2 4.8
2018-Jun-10 13:00N 30°06' W 093°20'3 6.6
2018-Jun-10 12:31N 30°10' W 093°19'1 2.7
2018-Jun-10 12:00N 30°11' W 093°18'0 0.9
2018-Jun-10 11:31N 30°11' W 093°19'5 9.4
2018-Jun-10 11:00N 30°06' W 093°20'2 4.5
2018-Jun-10 10:30N 30°06' W 093°17'0 0.0
2018-Jun-10 10:00N 30°06' W 093°17'0 0.0
2018-Jun-10 09:30N 30°06' W 093°17'0 0.0
2018-Jun-10 09:00N 30°06' W 093°17'0 0.0
2018-Jun-10 08:30N 30°06' W 093°17'0 0.0
2018-Jun-10 08:00N 30°06' W 093°17'0 0.0
2018-Jun-10 07:30N 30°06' W 093°17'0 0.0
2018-Jun-10 07:01N 30°06' W 093°17'0 0.0
2018-Jun-10 06:30N 30°06' W 093°17'0 0.0
2018-Jun-10 06:00N 30°06' W 093°17'0 0.0
2018-Jun-10 05:30N 30°06' W 093°17'  
Track history (hours):
 
Tides and Currents Weather Stations Pressure Air Temp Water Temp Dewpoint Dewpoint Depression Visibility Wind Speed Wind Dir Waves Ship Positions

Carl

Owner: POINT COMFORT TOWING CO., INC., POINT COMFORT, TX. More information available from US FCC via Universal Licensing System and Coast Guard Vessel Documentation Center.

Last reported at 2018-Jun-20 05:30 UTC. Time now 2018-Jun-20 05:34 UTC.
Position N 30°11' W 093°19'.

Length 32 m; draft 4 m.

Type: Towing. MMSI: 367556330.

Date/timePositionNaut miles runAvg speedWind from/ knotsBaromVisibWave heightAir tempDewpointWater temp
2018-Jun-20 05:30N 30°11' W 093°19'0 0.0
2018-Jun-20 05:00N 30°11' W 093°19'0 0.0
2018-Jun-20 04:30N 30°11' W 093°19'0 0.0
2018-Jun-20 04:00N 30°11' W 093°19'0 0.0
2018-Jun-20 03:27N 30°11' W 093°19'0 0.0
2018-Jun-20 02:59N 30°11' W 093°19'0 0.0
2018-Jun-20 02:30N 30°11' W 093°19'0 0.0
2018-Jun-20 02:00N 30°11' W 093°19'0 0.1
2018-Jun-20 01:31N 30°11' W 093°19'0 0.6
2018-Jun-20 01:00N 30°11' W 093°19'0 0.7
2018-Jun-20 00:30N 30°11' W 093°19'1 1.0
2018-Jun-20 00:00N 30°11' W 093°19'0 0.8
2018-Jun-19 23:30N 30°11' W 093°19'1 2.1
2018-Jun-19 23:00N 30°10' W 093°19'3 6.9
2018-Jun-19 22:30N 30°06' W 093°20'2 4.5
2018-Jun-19 22:00N 30°06' W 093°17'0 0.0
2018-Jun-19 21:30N 30°06' W 093°17'0 0.0
2018-Jun-19 21:00N 30°06' W 093°17'0 0.0
2018-Jun-19 20:30N 30°06' W 093°17'0 0.0
2018-Jun-19 20:00N 30°06' W 093°17'0 0.0
2018-Jun-19 19:30N 30°06' W 093°17'0 0.0
2018-Jun-19 19:00N 30°06' W 093°17'0 0.0
2018-Jun-19 18:30N 30°06' W 093°17'0 0.0
2018-Jun-19 18:00N 30°06' W 093°17'1 2.9
2018-Jun-19 17:30N 30°06' W 093°19'3 6.3
2018-Jun-19 17:00N 30°09' W 093°20'4 8.3
2018-Jun-19 16:30N 30°12' W 093°17'0 0.9
2018-Jun-19 16:00N 30°12' W 093°16'3 5.7
2018-Jun-19 15:30N 30°11' W 093°19'0 0.0
2018-Jun-19 15:00N 30°11' W 093°19'0 0.0
2018-Jun-19 14:30N 30°11' W 093°19'0 0.0
2018-Jun-19 13:59N 30°11' W 093°19'1 2.3
2018-Jun-19 13:31N 30°10' W 093°19'1 2.8
2018-Jun-19 13:00N 30°11' W 093°19'1 1.1
2018-Jun-19 12:30N 30°11' W 093°19'0 0.0
2018-Jun-19 12:00N 30°11' W 093°19'0 0.3
2018-Jun-19 11:30N 30°11' W 093°19'4 8.4
2018-Jun-19 11:00N 30°07' W 093°20'3 5.1
2018-Jun-19 10:30N 30°06' W 093°17'0 0.0
2018-Jun-19 10:00N 30°06' W 093°17'0 0.0
2018-Jun-19 09:30N 30°06' W 093°17'0 0.0
2018-Jun-19 09:00N 30°06' W 093°17'0 0.0
2018-Jun-19 08:30N 30°06' W 093°17'0 0.0
2018-Jun-19 08:00N 30°06' W 093°17'0 0.0
2018-Jun-19 07:30N 30°06' W 093°17'0 0.0
2018-Jun-19 07:00N 30°06' W 093°17'0 0.0
2018-Jun-19 06:30N 30°06' W 093°17'0 0.0
2018-Jun-19 06:00N 30°06' W 093°17'0 0.0
2018-Jun-19 05:30N 30°06' W 093°17'0 0.0
2018-Jun-19 05:00N 30°06' W 093°17'0 0.0
2018-Jun-19 04:30N 30°06' W 093°17'0 0.0
2018-Jun-19 04:00N 30°06' W 093°17'0 0.0
2018-Jun-19 03:30N 30°06' W 093°17'0 0.0
2018-Jun-19 03:00N 30°06' W 093°17'0 0.0
2018-Jun-19 02:30N 30°06' W 093°17'0 0.0
2018-Jun-19 02:00N 30°06' W 093°17'0 0.0
2018-Jun-19 01:30N 30°06' W 093°17'0 0.0
2018-Jun-19 01:00N 30°06' W 093°17'0 0.0
2018-Jun-19 00:30N 30°06' W 093°17'0 0.0
2018-Jun-19 00:00N 30°06' W 093°17'0 0.0
2018-Jun-18 23:30N 30°06' W 093°17'0 0.0
2018-Jun-18 23:00N 30°06' W 093°17'0 0.0
2018-Jun-18 22:30N 30°06' W 093°17'0 0.0
2018-Jun-18 22:00N 30°06' W 093°17'0 0.0
2018-Jun-18 21:30N 30°06' W 093°17'0 0.0
2018-Jun-18 21:00N 30°06' W 093°17'0 0.0
2018-Jun-18 20:30N 30°06' W 093°17'0 0.0
2018-Jun-18 20:00N 30°06' W 093°17'0 0.0
2018-Jun-18 19:30N 30°06' W 093°17'0 0.0
2018-Jun-18 19:00N 30°06' W 093°17'0 0.0
2018-Jun-18 18:30N 30°06' W 093°17'0 0.0
2018-Jun-18 18:00N 30°06' W 093°17'0 0.0
2018-Jun-18 17:30N 30°06' W 093°17'0 0.0
2018-Jun-18 17:00N 30°06' W 093°17'0 0.0
2018-Jun-18 16:30N 30°06' W 093°17'0 0.0
2018-Jun-18 16:00N 30°06' W 093°17'0 0.0
2018-Jun-18 15:30N 30°06' W 093°17'0 0.0
2018-Jun-18 15:00N 30°06' W 093°17'0 0.0
2018-Jun-18 14:30N 30°06' W 093°17'0 0.0
2018-Jun-18 14:00N 30°06' W 093°17'0 0.0
2018-Jun-18 13:30N 30°06' W 093°17'0 0.0
2018-Jun-18 13:00N 30°06' W 093°17'0 0.0
2018-Jun-18 12:30N 30°06' W 093°17'0 0.0
2018-Jun-18 12:00N 30°06' W 093°17'0 0.0
2018-Jun-18 11:30N 30°06' W 093°17'0 0.0
2018-Jun-18 11:00N 30°06' W 093°17'0 0.0
2018-Jun-18 10:30N 30°06' W 093°17'0 0.0
2018-Jun-18 10:00N 30°06' W 093°17'0 0.0
2018-Jun-18 09:30N 30°06' W 093°17'0 0.0
2018-Jun-18 09:00N 30°06' W 093°17'0 0.0
2018-Jun-18 08:30N 30°06' W 093°17'0 0.0
2018-Jun-18 08:00N 30°06' W 093°17'0 0.0
2018-Jun-18 07:30N 30°06' W 093°17'0 0.0
2018-Jun-18 07:00N 30°06' W 093°17'0 0.0
2018-Jun-18 06:30N 30°06' W 093°17'0 0.0
2018-Jun-18 06:00N 30°06' W 093°17'0 0.0
2018-Jun-18 05:30N 30°06' W 093°17'0 0.0
2018-Jun-18 05:00N 30°06' W 093°17'0 0.0
2018-Jun-18 04:30N 30°06' W 093°17'0 0.0
2018-Jun-18 04:00N 30°06' W 093°17'0 0.0
2018-Jun-18 03:30N 30°06' W 093°17'0 0.0
2018-Jun-18 03:00N 30°06' W 093°17'0 0.0
2018-Jun-18 02:30N 30°06' W 093°17'0 0.0
2018-Jun-18 02:00N 30°06' W 093°17'0 0.0
2018-Jun-18 01:30N 30°06' W 093°17'0 0.0
2018-Jun-18 01:00N 30°06' W 093°17'0 0.0
2018-Jun-18 00:30N 30°06' W 093°17'0 0.0
2018-Jun-18 00:00N 30°06' W 093°17'0 0.0
2018-Jun-17 23:30N 30°06' W 093°17'0 0.0
2018-Jun-17 23:00N 30°06' W 093°17'0 0.0
2018-Jun-17 22:30N 30°06' W 093°17'0 0.0
2018-Jun-17 22:00N 30°06' W 093°17'0 0.0
2018-Jun-17 21:30N 30°06' W 093°17'0 0.0
2018-Jun-17 21:00N 30°06' W 093°17'0 0.0
2018-Jun-17 20:30N 30°06' W 093°17'0 0.0
2018-Jun-17 20:00N 30°06' W 093°17'0 0.0
2018-Jun-17 19:30N 30°06' W 093°17'0 0.0
2018-Jun-17 19:00N 30°06' W 093°17'0 0.0
2018-Jun-17 18:30N 30°06' W 093°17'0 0.0
2018-Jun-17 18:00N 30°06' W 093°17'0 0.0
2018-Jun-17 17:30N 30°06' W 093°17'0 0.0
2018-Jun-17 17:00N 30°06' W 093°17'0 0.0
2018-Jun-17 16:30N 30°06' W 093°17'0 0.0
2018-Jun-17 16:00N 30°06' W 093°17'0 0.0
2018-Jun-17 15:30N 30°06' W 093°17'0 0.0
2018-Jun-17 15:00N 30°06' W 093°17'0 0.0
2018-Jun-17 14:30N 30°06' W 093°17'0 0.0
2018-Jun-17 14:00N 30°06' W 093°17'0 0.0
2018-Jun-17 13:30N 30°06' W 093°17'0 0.0
2018-Jun-17 13:00N 30°06' W 093°17'0 0.0
2018-Jun-17 12:30N 30°06' W 093°17'0 0.0
2018-Jun-17 12:00N 30°06' W 093°17'0 0.0
2018-Jun-17 11:30N 30°06' W 093°17'0 0.0
2018-Jun-17 11:00N 30°06' W 093°17'0 0.0
2018-Jun-17 10:30N 30°06' W 093°17'0 0.0
2018-Jun-17 10:00N 30°06' W 093°17'0 0.0
2018-Jun-17 09:30N 30°06' W 093°17'0 0.0
2018-Jun-17 09:00N 30°06' W 093°17'0 0.0
2018-Jun-17 08:30N 30°06' W 093°17'0 0.0
2018-Jun-17 08:00N 30°06' W 093°17'0 0.0
2018-Jun-17 07:30N 30°06' W 093°17'0 0.0
2018-Jun-17 07:00N 30°06' W 093°17'0 0.0
2018-Jun-17 06:30N 30°06' W 093°17'0 0.0
2018-Jun-17 06:00N 30°06' W 093°17'0 0.0
2018-Jun-17 05:30N 30°06' W 093°17'0 0.0
2018-Jun-17 05:00N 30°06' W 093°17'0 0.0
2018-Jun-17 04:30N 30°06' W 093°17'0 0.0
2018-Jun-17 04:00N 30°06' W 093°17'0 0.0
2018-Jun-17 03:30N 30°06' W 093°17'0 0.0
2018-Jun-17 03:00N 30°06' W 093°17'0 0.0
2018-Jun-17 02:30N 30°06' W 093°17'0 0.0
2018-Jun-17 02:00N 30°06' W 093°17'0 0.0
2018-Jun-17 01:30N 30°06' W 093°17'0 0.0
2018-Jun-17 01:00N 30°06' W 093°17'0 0.0
2018-Jun-17 00:30N 30°06' W 093°17'0 0.0
2018-Jun-17 00:00N 30°06' W 093°17'0 0.0
2018-Jun-16 23:30N 30°06' W 093°17'0 0.0
2018-Jun-16 23:00N 30°06' W 093°17'0 0.0
2018-Jun-16 22:30N 30°06' W 093°17'0 0.0
2018-Jun-16 22:00N 30°06' W 093°17'0 0.0
2018-Jun-16 21:30N 30°06' W 093°17'0 0.0
2018-Jun-16 21:00N 30°06' W 093°17'0 0.0
2018-Jun-16 20:30N 30°06' W 093°17'0 0.0
2018-Jun-16 20:00N 30°06' W 093°17'0 0.0
2018-Jun-16 19:30N 30°06' W 093°17'3 5.3
2018-Jun-16 19:00N 30°07' W 093°20'2 4.5
2018-Jun-16 18:31N 30°10' W 093°19'2 3.3
2018-Jun-16 18:00N 30°11' W 093°19'0 0.2
2018-Jun-16 17:31N 30°11' W 093°19'0 0.8
2018-Jun-16 17:00N 30°11' W 093°19'0 0.0
2018-Jun-16 16:30N 30°11' W 093°19'0 0.0
2018-Jun-16 15:59N 30°11' W 093°19'0 0.0
2018-Jun-16 15:28N 30°11' W 093°19'0 0.3
2018-Jun-16 15:00N 30°11' W 093°19'1 2.8
2018-Jun-16 14:30N 30°09' W 093°20'0 0.0
2018-Jun-16 14:00N 30°09' W 093°20'0 1.0
2018-Jun-16 13:30N 30°09' W 093°20'3 5.5
2018-Jun-16 13:00N 30°06' W 093°20'3 5.3
2018-Jun-16 12:30N 30°04' W 093°20'4 7.0
2018-Jun-16 12:00N 30°07' W 093°17'0 0.6
2018-Jun-16 11:30N 30°06' W 093°17'0 0.0
2018-Jun-16 11:00N 30°06' W 093°17'0 0.0
2018-Jun-16 10:30N 30°06' W 093°17'0 0.0
2018-Jun-16 10:00N 30°06' W 093°17'0 0.0
2018-Jun-16 09:30N 30°06' W 093°17'0 0.0
2018-Jun-16 09:00N 30°06' W 093°17'0 0.0
2018-Jun-16 08:30N 30°06' W 093°17'0 0.0
2018-Jun-16 08:00N 30°06' W 093°17'0 0.0
2018-Jun-16 07:30N 30°06' W 093°17'0 0.0
2018-Jun-16 07:00N 30°06' W 093°17'0 0.0
2018-Jun-16 06:30N 30°06' W 093°17'0 0.0
2018-Jun-16 06:00N 30°06' W 093°17'0 0.0
2018-Jun-16 05:30N 30°06' W 093°17'0 0.0
2018-Jun-16 05:00N 30°06' W 093°17'0 0.0
2018-Jun-16 04:30N 30°06' W 093°17'0 0.0
2018-Jun-16 04:00N 30°06' W 093°17'0 0.0
2018-Jun-16 03:29N 30°06' W 093°17'0 0.0
2018-Jun-16 03:00N 30°06' W 093°17'0 0.0
2018-Jun-16 02:30N 30°06' W 093°17'0 0.0
2018-Jun-16 01:58N 30°06' W 093°17'0 0.0
2018-Jun-16 01:30N 30°06' W 093°17'0 0.0
2018-Jun-16 01:00N 30°06' W 093°17'0 0.0
2018-Jun-16 00:30N 30°06' W 093°17'0 0.0
2018-Jun-16 00:00N 30°06' W 093°17'0 0.0
2018-Jun-15 23:30N 30°06' W 093°17'0 0.0
2018-Jun-15 23:00N 30°06' W 093°17'0 0.0
2018-Jun-15 22:30N 30°06' W 093°17'0 0.0
2018-Jun-15 22:00N 30°06' W 093°17'0 0.0
2018-Jun-15 21:30N 30°06' W 093°17'0 0.0
2018-Jun-15 21:00N 30°06' W 093°17'0 0.0
2018-Jun-15 20:30N 30°06' W 093°17'0 0.0
2018-Jun-15 20:00N 30°06' W 093°17'0 0.0
2018-Jun-15 19:30N 30°06' W 093°17'0 0.0
2018-Jun-15 19:00N 30°06' W 093°17'0 0.0
2018-Jun-15 18:30N 30°06' W 093°17'0 0.0
2018-Jun-15 18:00N 30°06' W 093°17'0 0.0
2018-Jun-15 17:30N 30°06' W 093°17'0 0.0
2018-Jun-15 17:00N 30°06' W 093°17'0 0.0
2018-Jun-15 16:30N 30°06' W 093°17'0 0.0
2018-Jun-15 16:00N 30°06' W 093°17'0 0.0
2018-Jun-15 15:30N 30°06' W 093°17'0 0.0
2018-Jun-15 15:00N 30°06' W 093°17'0 0.0
2018-Jun-15 14:30N 30°06' W 093°17'0 0.0
2018-Jun-15 14:00N 30°06' W 093°17'0 0.0
2018-Jun-15 13:30N 30°06' W 093°17'0 0.0
2018-Jun-15 13:00N 30°06' W 093°17'0 0.0
2018-Jun-15 12:30N 30°06' W 093°17'0 0.0
2018-Jun-15 12:00N 30°06' W 093°17'0 0.0
2018-Jun-15 11:30N 30°06' W 093°17'0 0.0
2018-Jun-15 11:00N 30°06' W 093°17'0 0.0
2018-Jun-15 10:30N 30°06' W 093°17'0 0.0
2018-Jun-15 10:00N 30°06' W 093°17'0 0.0
2018-Jun-15 09:30N 30°06' W 093°17'0 0.0
2018-Jun-15 09:00N 30°06' W 093°17'0 0.0
2018-Jun-15 08:30N 30°06' W 093°17'0 0.0
2018-Jun-15 08:00N 30°06' W 093°17'0 0.0
2018-Jun-15 07:30N 30°06' W 093°17'0 0.0
2018-Jun-15 07:00N 30°06' W 093°17'0 0.0
2018-Jun-15 06:30N 30°06' W 093°17'0 0.0
2018-Jun-15 06:00N 30°06' W 093°17'0 0.0
2018-Jun-15 05:30N 30°06' W 093°17'0 0.0
2018-Jun-15 05:00N 30°06' W 093°17'0 0.0
2018-Jun-15 04:30N 30°06' W 093°17'0 0.0
2018-Jun-15 04:00N 30°06' W 093°17'0 0.0
2018-Jun-15 03:30N 30°06' W 093°17'0 0.0
2018-Jun-15 03:00N 30°06' W 093°17'0 0.0
2018-Jun-15 02:29N 30°06' W 093°17'0 0.0
2018-Jun-15 02:00N 30°06' W 093°17'0 0.0
2018-Jun-15 01:30N 30°06' W 093°17'0 0.0
2018-Jun-15 01:00N 30°06' W 093°17'0 0.0
2018-Jun-15 00:30N 30°06' W 093°17'0 0.0
2018-Jun-15 00:00N 30°06' W 093°17'0 0.0
2018-Jun-14 23:30N 30°06' W 093°17'0 0.0
2018-Jun-14 23:00N 30°06' W 093°17'0 0.0
2018-Jun-14 22:30N 30°06' W 093°17'0 0.0
2018-Jun-14 22:00N 30°06' W 093°17'0 0.0
2018-Jun-14 21:30N 30°06' W 093°17'0 0.0
2018-Jun-14 21:00N 30°06' W 093°17'0 0.0
2018-Jun-14 20:30N 30°06' W 093°17'0 0.0
2018-Jun-14 20:00N 30°06' W 093°17'0 0.0
2018-Jun-14 19:30N 30°06' W 093°17'1 1.7
2018-Jun-14 19:00N 30°06' W 093°18'3 5.9
2018-Jun-14 18:30N 30°09' W 093°20'1 1.3
2018-Jun-14 18:00N 30°09' W 093°20'0 0.0
2018-Jun-14 17:30N 30°09' W 093°20'1 1.2
2018-Jun-14 17:00N 30°09' W 093°20'2 4.9
2018-Jun-14 16:30N 30°07' W 093°20'3 5.6
2018-Jun-14 16:00N 30°04' W 093°20'1 1.1
2018-Jun-14 15:30N 30°04' W 093°20'5 9.2
2018-Jun-14 15:00N 30°09' W 093°20'2 4.1
2018-Jun-14 14:30N 30°11' W 093°19'0 0.0
2018-Jun-14 14:00N 30°11' W 093°19'0 0.0
2018-Jun-14 13:30N 30°11' W 093°19'0 0.0
2018-Jun-14 13:00N 30°11' W 093°19'0 0.0
2018-Jun-14 12:30N 30°11' W 093°19'0 0.4
2018-Jun-14 12:00N 30°11' W 093°19'0 0.0
2018-Jun-14 11:30N 30°11' W 093°19'1 1.4
2018-Jun-14 11:00N 30°11' W 093°18'2 3.9
2018-Jun-14 10:31N 30°09' W 093°20'1 2.6
2018-Jun-14 10:00N 30°08' W 093°20'2 4.8
2018-Jun-14 09:30N 30°07' W 093°18'1 1.0
2018-Jun-14 09:00N 30°06' W 093°17'0 0.0
2018-Jun-14 08:30N 30°06' W 093°17'0 0.0
2018-Jun-14 08:00N 30°06' W 093°17'0 0.0
2018-Jun-14 07:30N 30°06' W 093°17'0 0.0
2018-Jun-14 07:00N 30°06' W 093°17'0 0.0
2018-Jun-14 06:30N 30°06' W 093°17'0 0.0
2018-Jun-14 06:00N 30°06' W 093°17'0 0.0
2018-Jun-14 05:30N 30°06' W 093°17'0 0.0
2018-Jun-14 05:00N 30°06' W 093°17'0 0.0
2018-Jun-14 04:26N 30°06' W 093°17'0 0.0
2018-Jun-14 04:00N 30°06' W 093°17'0 0.8
2018-Jun-14 03:30N 30°07' W 093°18'2 4.5
2018-Jun-14 03:00N 30°07' W 093°20'2 4.7
2018-Jun-14 02:30N 30°10' W 093°19'2 4.0
2018-Jun-14 02:00N 30°11' W 093°18'0 0.6
2018-Jun-14 01:30N 30°12' W 093°18'1 2.4
2018-Jun-14 00:58N 30°11' W 093°19'0 1.0
2018-Jun-14 00:30N 30°10' W 093°19'2 3.6
2018-Jun-14 00:00N 30°09' W 093°20'0 0.7
2018-Jun-13 23:30N 30°08' W 093°20'1 2.8
2018-Jun-13 23:00N 30°07' W 093°20'3 5.3
2018-Jun-13 22:30N 30°06' W 093°17'0 0.0
2018-Jun-13 22:00N 30°06' W 093°17'0 0.0
2018-Jun-13 21:30N 30°06' W 093°17'0 0.0
2018-Jun-13 21:00N 30°06' W 093°17'0 0.0
2018-Jun-13 20:30N 30°06' W 093°17'0 0.0
2018-Jun-13 20:00N 30°06' W 093°17'0 0.0
2018-Jun-13 19:30N 30°06' W 093°17'0 0.0
2018-Jun-13 19:00N 30°06' W 093°17'0 0.0
2018-Jun-13 18:30N 30°06' W 093°17'0 0.0
2018-Jun-13 18:00N 30°06' W 093°17'0 0.0
2018-Jun-13 17:30N 30°06' W 093°17'0 0.0
2018-Jun-13 17:00N 30°06' W 093°17'0 0.0
2018-Jun-13 16:30N 30°06' W 093°17'0 0.0
2018-Jun-13 16:00N 30°06' W 093°17'0 0.1
2018-Jun-13 15:30N 30°06' W 093°17'0 0.0
2018-Jun-13 15:00N 30°06' W 093°17'0 0.0
2018-Jun-13 14:30N 30°06' W 093°17'0 0.0
2018-Jun-13 14:00N 30°06' W 093°17'0 0.0
2018-Jun-13 13:30N 30°06' W 093°17'0 0.2
2018-Jun-13 13:00N 30°06' W 093°17'0 0.1
2018-Jun-13 12:30N 30°06' W 093°17'0 0.0
2018-Jun-13 12:00N 30°06' W 093°17'0 0.0
2018-Jun-13 11:30N 30°06' W 093°17'0 0.0
2018-Jun-13 11:00N 30°06' W 093°17'0 0.0
2018-Jun-13 10:30N 30°06' W 093°17'0 0.0
2018-Jun-13 10:00N 30°06' W 093°17'0 0.0
2018-Jun-13 09:30N 30°06' W 093°17'0 0.0
2018-Jun-13 09:00N 30°06' W 093°17'0 0.0
2018-Jun-13 08:30N 30°06' W 093°17'0 0.0
2018-Jun-13 08:00N 30°06' W 093°17'0 0.0
2018-Jun-13 07:30N 30°06' W 093°17'0 0.0
2018-Jun-13 07:00N 30°06' W 093°17'0 0.0
2018-Jun-13 06:30N 30°06' W 093°17'0 0.0
2018-Jun-13 06:00N 30°06' W 093°17'0 0.0
2018-Jun-13 05:30N 30°06' W 093°17'0 0.0
2018-Jun-13 05:00N 30°06' W 093°17'0 0.0
2018-Jun-13 04:30N 30°06' W 093°17'0 0.0
2018-Jun-13 04:00N 30°06' W 093°17'0 0.0
2018-Jun-13 03:30N 30°06' W 093°17'0 0.0
2018-Jun-13 03:00N 30°06' W 093°17'0 0.0
2018-Jun-13 02:30N 30°06' W 093°17'0 0.1
2018-Jun-13 02:00N 30°06' W 093°17'0 0.0
2018-Jun-13 01:30N 30°06' W 093°17'0 0.0
2018-Jun-13 01:00N 30°06' W 093°17'0 0.0
2018-Jun-13 00:30N 30°06' W 093°17'0 0.0
2018-Jun-13 00:00N 30°06' W 093°17'0 0.0
2018-Jun-12 23:30N 30°06' W 093°17'0 0.0
2018-Jun-12 23:00N 30°06' W 093°17'0 0.0
2018-Jun-12 22:30N 30°06' W 093°17'0 0.0
2018-Jun-12 22:00N 30°06' W 093°17'0 0.0
2018-Jun-12 21:30N 30°06' W 093°17'0 0.0
2018-Jun-12 21:00N 30°06' W 093°17'0 0.0
2018-Jun-12 20:30N 30°06' W 093°17'0 0.0
2018-Jun-12 20:00N 30°06' W 093°17'0 0.0
2018-Jun-12 19:30N 30°06' W 093°17'0 0.0
2018-Jun-12 19:00N 30°06' W 093°17'0 0.0
2018-Jun-12 18:30N 30°06' W 093°17'0 0.0
2018-Jun-12 18:00N 30°06' W 093°17'0 0.0
2018-Jun-12 17:30N 30°06' W 093°17'0 0.0
2018-Jun-12 17:00N 30°06' W 093°17'0 0.0
2018-Jun-12 16:30N 30°06' W 093°17'0 0.0
2018-Jun-12 16:00N 30°06' W 093°17'0 0.0
2018-Jun-12 15:30N 30°06' W 093°17'2 4.5
2018-Jun-12 15:00N 30°06' W 093°20'3 1.7
2018-Jun-12 12:54N 30°10' W 093°19'0 1.2
2018-Jun-12 12:30N 30°10' W 093°19'1 1.4
2018-Jun-12 12:00N 30°11' W 093°19'0 0.0
2018-Jun-12 11:29N 30°11' W 093°19'0 0.0
2018-Jun-12 10:56N 30°11' W 093°19'0 0.0
2018-Jun-12 10:30N 30°11' W 093°19'0 0.0
2018-Jun-12 09:58N 30°11' W 093°19'0 0.0
2018-Jun-12 09:30N 30°11' W 093°19'2 3.6
2018-Jun-12 09:01N 30°09' W 093°20'0 0.1
2018-Jun-12 08:30N 30°09' W 093°20'0 0.5
2018-Jun-12 08:00N 30°09' W 093°20'0 1.0
2018-Jun-12 07:30N 30°09' W 093°20'3 5.8
2018-Jun-12 07:00N 30°06' W 093°18'1 2.3
2018-Jun-12 06:30N 30°06' W 093°17'0 0.0
2018-Jun-12 06:00N 30°06' W 093°17'0 0.0
2018-Jun-12 05:30N 30°06' W 093°17'0 0.0
2018-Jun-12 05:00N 30°06' W 093°17'0 0.0
2018-Jun-12 04:30N 30°06' W 093°17'0 0.0
2018-Jun-12 04:00N 30°06' W 093°17'0 0.0
2018-Jun-12 03:30N 30°06' W 093°17'0 0.0
2018-Jun-12 03:00N 30°06' W 093°17'0 0.0
2018-Jun-12 02:30N 30°06' W 093°17'0 0.0
2018-Jun-12 02:00N 30°06' W 093°17'0 0.0
2018-Jun-12 01:30N 30°06' W 093°17'0 0.0
2018-Jun-12 01:00N 30°06' W 093°17'0 0.0
2018-Jun-12 00:30N 30°06' W 093°17'0 0.0
2018-Jun-12 00:01N 30°06' W 093°17'0 0.0
2018-Jun-11 23:30N 30°06' W 093°17'0 0.0
2018-Jun-11 23:00N 30°06' W 093°17'0 0.0
2018-Jun-11 22:30N 30°06' W 093°17'0 0.0
2018-Jun-11 22:00N 30°06' W 093°17'0 0.0
2018-Jun-11 21:30N 30°06' W 093°17'0 0.0
2018-Jun-11 21:00N 30°06' W 093°17'0 0.0
2018-Jun-11 20:30N 30°06' W 093°17'0 0.0
2018-Jun-11 20:00N 30°06' W 093°17'0 0.0
2018-Jun-11 19:30N 30°06' W 093°17'0 0.0
2018-Jun-11 19:00N 30°06' W 093°17'0 0.0
2018-Jun-11 18:30N 30°06' W 093°17'0 0.0
2018-Jun-11 18:00N 30°06' W 093°17'0 0.0
2018-Jun-11 17:30N 30°06' W 093°17'0 0.0
2018-Jun-11 17:00N 30°06' W 093°17'0 0.0
2018-Jun-11 16:30N 30°06' W 093°17'0 0.0
2018-Jun-11 16:00N 30°06' W 093°17'0 0.0
2018-Jun-11 15:30N 30°06' W 093°17'0 0.0
2018-Jun-11 15:00N 30°06' W 093°17'0 0.0
2018-Jun-11 14:30N 30°06' W 093°17'3 5.4
2018-Jun-11 14:00N 30°07' W 093°20'3 5.5
2018-Jun-11 13:30N 30°10' W 093°19'1 2.2
2018-Jun-11 13:00N 30°11' W 093°19'0 0.0
2018-Jun-11 12:30N 30°11' W 093°19'0 0.7
2018-Jun-11 12:00N 30°11' W 093°19'0 0.0
2018-Jun-11 11:30N 30°11' W 093°19'0 0.0
2018-Jun-11 11:00N 30°11' W 093°19'0 0.0
2018-Jun-11 10:30N 30°11' W 093°19'0 0.0
2018-Jun-11 10:00N 30°11' W 093°19'2 3.2
2018-Jun-11 09:30N 30°09' W 093°20'0 0.0
2018-Jun-11 09:00N 30°09' W 093°20'1 1.1
2018-Jun-11 08:30N 30°09' W 093°20'3 5.4
2018-Jun-11 08:00N 30°06' W 093°20'3 5.8
2018-Jun-11 07:30N 30°03' W 093°20'3 5.1
2018-Jun-11 07:00N 30°06' W 093°19'2 3.9
2018-Jun-11 06:30N 30°06' W 093°17'0 0.0
2018-Jun-11 06:00N 30°06' W 093°17'0 0.0
2018-Jun-11 05:30N 30°06' W 093°17'0 0.0
2018-Jun-11 05:00N 30°06' W 093°17'0 0.0
2018-Jun-11 04:30N 30°06' W 093°17'0 0.0
2018-Jun-11 04:00N 30°06' W 093°17'0 0.0
2018-Jun-11 03:30N 30°06' W 093°17'0 0.0
2018-Jun-11 03:00N 30°06' W 093°17'0 0.0
2018-Jun-11 02:30N 30°06' W 093°17'0 0.0
2018-Jun-11 01:59N 30°06' W 093°17'0 0.0
2018-Jun-11 01:30N 30°06' W 093°17'0 0.0
2018-Jun-11 01:00N 30°06' W 093°17'0 0.0
2018-Jun-11 00:30N 30°06' W 093°17'0 0.0
2018-Jun-11 00:00N 30°06' W 093°17'0 0.0
2018-Jun-10 23:30N 30°06' W 093°17'0 0.0
2018-Jun-10 23:00N 30°06' W 093°17'0 0.0
2018-Jun-10 22:30N 30°06' W 093°17'0 0.0
2018-Jun-10 22:00N 30°06' W 093°17'0 0.0
2018-Jun-10 21:30N 30°06' W 093°17'0 0.0
2018-Jun-10 21:00N 30°06' W 093°17'0 0.0
2018-Jun-10 20:30N 30°06' W 093°17'0 0.0
2018-Jun-10 20:00N 30°06' W 093°17'0 0.0
2018-Jun-10 19:30N 30°06' W 093°17'0 0.0
2018-Jun-10 19:00N 30°06' W 093°17'0 0.0
2018-Jun-10 18:30N 30°06' W 093°17'0 0.0
2018-Jun-10 18:00N 30°06' W 093°17'0 0.0
2018-Jun-10 17:30N 30°06' W 093°17'0 0.0
2018-Jun-10 17:00N 30°06' W 093°17'0 0.0
2018-Jun-10 16:30N 30°06' W 093°17'0 0.0
2018-Jun-10 16:00N 30°06' W 093°17'0 0.0
2018-Jun-10 15:30N 30°06' W 093°17'0 0.0
2018-Jun-10 15:00N 30°06' W 093°17'0 0.0
2018-Jun-10 14:00N 30°06' W 093°17'0 0.0
2018-Jun-10 13:30N 30°06' W 093°17'2 4.8
2018-Jun-10 13:00N 30°06' W 093°20'3 6.6
2018-Jun-10 12:31N 30°10' W 093°19'1 2.7
2018-Jun-10 12:00N 30°11' W 093°18'0 0.9
2018-Jun-10 11:31N 30°11' W 093°19'5 9.4
2018-Jun-10 11:00N 30°06' W 093°20'2 4.5
2018-Jun-10 10:30N 30°06' W 093°17'0 0.0
2018-Jun-10 10:00N 30°06' W 093°17'0 0.0
2018-Jun-10 09:30N 30°06' W 093°17'0 0.0
2018-Jun-10 09:00N 30°06' W 093°17'0 0.0
2018-Jun-10 08:30N 30°06' W 093°17'0 0.0
2018-Jun-10 08:00N 30°06' W 093°17'0 0.0
2018-Jun-10 07:30N 30°06' W 093°17'0 0.0
2018-Jun-10 07:01N 30°06' W 093°17'0 0.0
2018-Jun-10 06:30N 30°06' W 093°17'0 0.0
2018-Jun-10 06:00N 30°06' W 093°17'0 0.0
2018-Jun-10 05:30N 30°06' W 093°17'  

Dump ship's entire track history